createdAt,value
2018-01-19T12:11:16.262Z,46.81
2018-01-19T12:14:56.438Z,45.75
2018-01-19T12:15:56.439Z,51.48
2018-01-19T12:17:49.919Z,42.93
2018-01-19T12:22:17.259Z,37.46
2018-01-19T12:23:17.247Z,49.99
2018-01-19T12:25:10.725Z,59.11
2018-01-19T12:26:10.721Z,60.25
2018-01-19T12:28:04.172Z,60.82
2018-01-19T12:29:04.171Z,61.93
2018-01-19T12:30:58.623Z,61.65
2018-01-19T12:31:58.609Z,61.65
2018-01-19T12:33:53.061Z,62.12
2018-01-19T12:34:53.060Z,62.50
2018-01-19T12:36:46.521Z,62.31
2018-01-19T12:37:46.511Z,62.12
2018-01-19T12:39:39.967Z,63.35
2018-01-19T12:40:39.954Z,62.97
2018-01-19T12:42:34.396Z,63.26
2018-01-19T12:43:34.419Z,62.88
2018-01-19T12:45:28.828Z,62.88
2018-01-19T12:46:28.837Z,62.97
2018-01-19T12:48:23.264Z,62.88
2018-01-19T12:49:23.258Z,63.26
2018-01-19T12:51:16.736Z,62.53
2018-01-19T12:52:16.705Z,62.21
2018-01-19T12:54:10.144Z,61.74
2018-01-19T12:55:10.134Z,60.72
2018-01-19T12:57:04.595Z,60.06
2018-01-19T12:58:04.582Z,59.58
2018-01-19T12:59:59.030Z,59.68
2018-01-19T13:00:59.018Z,59.87
2018-01-19T13:02:52.477Z,59.68
2018-01-19T13:03:52.457Z,59.87
2018-01-19T13:05:47.885Z,60.16
2018-01-19T13:06:47.881Z,59.96
2018-01-19T13:08:41.323Z,60.35
2018-01-19T13:09:41.318Z,60.35
2018-01-19T13:11:34.773Z,61.58
2018-01-19T13:12:34.760Z,60.82
2018-01-19T13:14:29.199Z,60.25
2018-01-19T13:15:29.197Z,60.16
2018-01-19T13:17:22.678Z,60.72
2018-01-19T13:18:22.664Z,59.87
2018-01-19T13:20:17.307Z,60.35
2018-01-19T13:21:17.304Z,59.87
2018-01-19T13:23:10.746Z,60.53
2018-01-19T13:24:10.745Z,60.16
2018-01-19T13:26:05.192Z,60.72
2018-01-19T13:27:05.180Z,60.72
2018-01-19T13:28:59.624Z,60.72
2018-01-19T13:29:59.626Z,60.44
2018-01-19T13:31:53.086Z,60.44
2018-01-19T13:32:53.071Z,60.06
2018-01-19T13:34:47.539Z,61.20
2018-01-19T13:35:47.523Z,60.72
2018-01-19T13:37:41.946Z,60.82
2018-01-19T13:38:41.939Z,61.20
2018-01-19T13:40:35.399Z,60.82
2018-01-19T13:41:35.401Z,61.48
2018-01-19T13:43:28.848Z,61.01
2018-01-19T13:44:28.827Z,60.91
2018-01-19T13:46:23.275Z,61.68
2018-01-19T13:47:23.271Z,61.68
2018-01-19T13:49:18.269Z,62.24
2018-01-19T13:50:17.710Z,62.34
2018-01-19T13:52:12.159Z,62.50
2018-01-19T13:53:12.145Z,63.10
2018-01-19T13:55:05.591Z,64.49
2018-01-19T13:56:05.579Z,65.92
2018-01-19T13:58:00.062Z,66.96
2018-01-19T13:59:00.018Z,68.35
2018-01-19T14:00:53.640Z,70.06
2018-01-19T14:01:53.575Z,71.39
2018-01-19T14:03:49.891Z,73.63
2018-01-19T14:04:49.623Z,75.24
2018-01-19T14:06:43.086Z,76.10
2018-01-19T14:07:43.236Z,76.57
2018-01-19T14:09:38.962Z,77.71
2018-01-19T14:10:38.733Z,76.57
2018-01-19T14:12:33.201Z,76.76
2018-01-19T14:13:33.143Z,77.05
2018-01-19T14:15:27.886Z,76.73
2018-01-19T14:16:27.593Z,77.96
2018-01-19T14:18:21.055Z,78.19
2018-01-19T14:19:21.047Z,77.62
2018-01-19T14:21:14.504Z,77.52
2018-01-19T14:22:14.492Z,76.86
2018-01-19T14:24:07.938Z,76.86
2018-01-19T14:25:07.929Z,76.39
2018-01-19T14:27:01.382Z,77.52
2018-01-19T14:28:01.365Z,77.71
2018-01-19T14:29:54.816Z,77.33
2018-01-19T14:30:54.812Z,77.71
2018-01-19T14:32:48.263Z,76.67
2018-01-19T14:33:48.245Z,76.39
2018-01-19T14:35:42.700Z,76.01
2018-01-19T14:36:42.678Z,76.01
2018-01-19T14:38:36.112Z,76.76
2018-01-19T14:39:36.108Z,77.24
2018-01-19T14:41:30.559Z,75.81
2018-01-19T14:42:30.546Z,76.15
2018-01-19T14:44:23.993Z,75.87
2018-01-19T14:45:24.013Z,75.87
2018-01-19T14:47:17.494Z,76.44
2018-01-19T14:48:17.438Z,76.25
2018-01-19T14:50:10.881Z,76.48
2018-01-19T14:51:10.870Z,76.06
2018-01-19T14:53:05.314Z,76.48
2018-01-19T14:54:05.299Z,75.78
2018-01-19T14:55:59.740Z,75.91
2018-01-19T14:56:59.725Z,75.59
2018-01-19T14:58:54.169Z,75.78
2018-01-19T14:59:54.158Z,76.25
2018-01-19T15:01:48.592Z,75.78
2018-01-19T15:02:48.582Z,75.96
2018-01-19T15:04:43.026Z,75.78
2018-01-19T15:05:43.029Z,76.34
2018-01-19T15:07:36.480Z,75.78
2018-01-19T15:08:36.457Z,75.68
2018-01-19T15:10:30.892Z,76.63
2018-01-19T15:11:30.892Z,76.34
2018-01-19T15:13:24.332Z,76.34
2018-01-19T15:14:24.322Z,75.96
2018-01-19T15:16:18.759Z,76.06
2018-01-19T15:17:18.749Z,76.29
2018-01-19T15:19:13.170Z,75.96
2018-01-19T15:20:13.163Z,76.25
2018-01-19T15:22:07.628Z,76.06
2018-01-19T15:23:07.617Z,75.59
2018-01-19T15:25:02.058Z,75.78
2018-01-19T15:26:02.080Z,75.68
2018-01-19T15:27:55.524Z,75.78
2018-01-19T15:28:55.487Z,75.78
2018-01-19T15:30:49.910Z,75.68
2018-01-19T15:31:49.917Z,75.68
2018-01-19T15:33:43.362Z,76.25
2018-01-19T15:34:43.362Z,75.81
2018-01-19T15:36:36.781Z,76.25
2018-01-19T15:37:36.769Z,75.78
2018-01-19T15:39:31.201Z,75.11
2018-01-19T15:40:31.195Z,75.87
2018-01-19T15:42:25.760Z,75.78
2018-01-19T15:43:25.621Z,75.78
2018-01-19T15:45:20.047Z,75.96
2018-01-19T15:46:20.031Z,75.81
2018-01-19T15:47:20.080Z,75.96
2018-01-19T15:48:20.089Z,75.96
2018-01-19T15:49:20.070Z,76.10
2018-01-19T15:50:20.095Z,75.91
2018-01-19T15:51:20.104Z,75.91
2018-01-19T15:52:20.115Z,75.34
2018-01-19T15:53:20.137Z,75.05
2018-01-19T15:54:20.145Z,75.05
2018-01-19T15:55:20.159Z,74.87
2018-01-19T15:56:20.169Z,75.43
2018-01-19T15:57:20.190Z,75.62
2018-01-19T15:58:20.323Z,76.44
2018-01-19T15:59:20.214Z,76.48
2018-01-19T16:00:20.245Z,76.15
2018-01-19T16:01:20.249Z,76.44
2018-01-19T16:02:20.264Z,76.67
2018-01-19T16:03:20.270Z,75.68
2018-01-19T16:04:20.285Z,76.48
2018-01-19T16:05:20.308Z,76.20
2018-01-19T16:06:20.313Z,76.48
2018-01-19T16:07:20.329Z,77.05
2018-01-19T16:08:20.379Z,77.05
2018-01-19T16:09:20.360Z,76.29
2018-01-19T16:10:20.377Z,76.10
2018-01-19T16:11:20.383Z,75.62
2018-01-19T16:12:20.400Z,75.81
2018-01-19T16:13:20.414Z,76.01
2018-01-19T16:14:20.437Z,76.86
2018-01-19T16:15:20.449Z,76.67
2018-01-19T16:16:20.457Z,76.20
2018-01-19T16:17:20.473Z,76.20
2018-01-19T16:18:20.489Z,76.67
2018-01-19T16:19:20.504Z,76.76
2018-01-19T16:20:20.512Z,76.67
2018-01-19T16:21:20.527Z,76.29
2018-01-19T16:22:20.544Z,75.91
2018-01-19T16:23:20.556Z,76.67
2018-01-19T16:24:20.572Z,77.24
2018-01-19T16:25:20.590Z,77.05
2018-01-19T16:26:20.602Z,77.24
2018-01-19T16:27:20.627Z,77.81
2018-01-19T16:28:20.634Z,77.71
2018-01-19T16:29:20.644Z,77.24
2018-01-19T16:30:20.659Z,77.81
2018-01-19T16:31:20.899Z,78.00
2018-01-19T16:32:20.688Z,78.19
2018-01-19T16:33:20.726Z,77.77
2018-01-19T16:34:20.733Z,78.81
2018-01-19T16:35:20.726Z,78.75
2018-01-19T16:36:20.746Z,78.62
2018-01-19T16:37:20.753Z,78.56
2018-01-19T16:38:20.780Z,78.72
2018-01-19T16:39:20.791Z,78.91
2018-01-19T16:40:20.817Z,79.47
2018-01-19T16:41:20.813Z,78.75
2018-01-19T16:42:20.826Z,78.56
2018-01-19T16:43:20.845Z,78.66
2018-01-19T16:44:20.862Z,78.95
2018-01-19T16:45:20.869Z,78.66
2018-01-19T16:46:20.887Z,78.66
2018-01-19T16:47:20.897Z,78.85
2018-01-19T16:48:20.911Z,79.04
2018-01-19T16:49:20.963Z,78.85
2018-01-19T16:50:20.944Z,78.62
2018-01-19T16:51:20.960Z,79.23
2018-01-19T16:52:20.973Z,78.75
2018-01-19T16:53:20.988Z,78.66
2018-01-19T16:54:21.012Z,78.56
2018-01-19T16:55:21.018Z,78.56
2018-01-19T16:56:21.045Z,78.66
2018-01-19T16:57:21.090Z,78.38
2018-01-19T16:58:21.059Z,79.57
2018-01-19T16:59:21.075Z,81.09
2018-01-19T17:00:21.087Z,81.37
2018-01-19T17:01:21.098Z,81.94
2018-01-19T17:02:21.120Z,80.99
2018-01-19T17:03:21.128Z,80.71
2018-01-19T17:04:21.147Z,80.75
2018-01-19T17:05:21.158Z,79.85
2018-01-19T17:06:21.174Z,79.66
2018-01-19T17:07:21.187Z,79.66
2018-01-19T17:08:21.198Z,81.09
2018-01-19T17:09:21.224Z,80.14
2018-01-19T17:10:21.222Z,80.10
2018-01-19T17:11:21.261Z,80.14
2018-01-19T17:12:21.254Z,80.67
2018-01-19T17:13:21.272Z,80.90
2018-01-19T17:14:21.283Z,80.99
2018-01-19T17:15:21.313Z,80.52
2018-01-19T17:16:21.316Z,79.57
2018-01-19T17:17:21.330Z,79.57
2018-01-19T17:18:21.341Z,80.14
2018-01-19T17:19:21.358Z,80.95
2018-01-19T17:20:21.368Z,81.18
2018-01-19T17:21:21.386Z,81.66
2018-01-19T17:22:21.405Z,81.37
2018-01-19T17:23:21.429Z,81.71
2018-01-19T17:24:21.422Z,81.62
2018-01-19T17:25:21.435Z,81.47
2018-01-19T17:26:21.469Z,81.18
2018-01-19T17:27:21.470Z,80.90
2018-01-19T17:28:21.479Z,80.95
2018-01-19T17:29:21.518Z,81.27
2018-01-19T17:30:21.509Z,81.37
2018-01-19T17:31:21.545Z,81.09
2018-01-19T17:32:21.536Z,80.43
2018-01-19T17:33:21.553Z,80.14
2018-01-19T17:34:21.568Z,79.38
2018-01-19T17:35:21.589Z,79.10
2018-01-19T17:36:21.600Z,79.19
2018-01-19T17:37:21.611Z,79.00
2018-01-19T17:38:21.621Z,79.66
2018-01-19T17:39:21.635Z,79.38
2018-01-19T17:40:21.653Z,78.81
2018-01-19T17:41:21.659Z,79.10
2018-01-19T17:42:21.682Z,79.76
2018-01-19T17:43:21.694Z,79.57
2018-01-19T17:44:21.711Z,79.38
2018-01-19T17:45:21.727Z,79.52
2018-01-19T17:46:21.730Z,79.04
2018-01-19T17:47:21.762Z,79.28
2018-01-19T17:48:21.763Z,79.38
2018-01-19T17:49:21.770Z,79.47
2018-01-19T17:50:21.800Z,79.76
2018-01-19T17:51:21.814Z,80.52
2018-01-19T17:52:21.819Z,79.95
2018-01-19T17:53:21.830Z,80.24
2018-01-19T17:54:21.844Z,80.04
2018-01-19T17:55:21.865Z,80.04
2018-01-19T17:56:21.886Z,80.52
2018-01-19T17:57:21.886Z,80.24
2018-01-19T17:58:21.909Z,79.66
2018-01-19T17:59:21.917Z,79.47
2018-01-19T18:00:22.019Z,79.57
2018-01-19T18:01:21.948Z,79.85
2018-01-19T18:02:21.959Z,80.04
2018-01-19T18:03:21.979Z,80.33
2018-01-19T18:04:21.992Z,79.47
2018-01-19T18:05:21.995Z,79.28
2018-01-19T18:06:22.021Z,79.28
2018-01-19T18:07:22.028Z,78.91
2018-01-19T18:08:22.031Z,79.47
2018-01-19T18:09:22.051Z,79.47
2018-01-19T18:10:22.065Z,79.76
2018-01-19T18:11:22.076Z,79.47
2018-01-19T18:12:22.091Z,80.04
2018-01-19T18:13:22.111Z,79.57
2018-01-19T18:14:22.126Z,79.76
2018-01-19T18:15:22.137Z,79.28
2018-01-19T18:16:22.156Z,79.76
2018-01-19T18:17:22.167Z,79.95
2018-01-19T18:18:22.168Z,80.04
2018-01-19T18:19:22.191Z,79.38
2018-01-19T18:20:22.193Z,79.85
2018-01-19T18:21:22.216Z,79.76
2018-01-19T18:22:22.244Z,79.66
2018-01-19T18:23:22.245Z,79.76
2018-01-19T18:24:22.286Z,79.38
2018-01-19T18:25:22.268Z,79.66
2018-01-19T18:26:22.286Z,80.14
2018-01-19T18:27:22.300Z,80.90
2018-01-19T18:28:22.307Z,81.09
2018-01-19T18:29:22.450Z,81.09
2018-01-19T18:30:22.341Z,80.52
2018-01-19T18:31:22.346Z,79.95
2018-01-19T18:32:22.401Z,81.18
2018-01-19T18:33:22.374Z,81.09
2018-01-19T18:34:22.396Z,80.52
2018-01-19T18:35:22.411Z,80.14
2018-01-19T18:36:22.412Z,80.14
2018-01-19T18:37:22.440Z,80.04
2018-01-19T18:38:22.464Z,79.57
2018-01-19T18:39:22.458Z,79.57
2018-01-19T18:40:22.470Z,79.57
2018-01-19T18:41:22.498Z,79.85
2018-01-19T18:42:22.508Z,79.38
2018-01-19T18:43:22.512Z,80.24
2018-01-19T18:44:22.528Z,80.24
2018-01-19T18:45:22.578Z,80.52
2018-01-19T18:46:22.548Z,79.95
2018-01-19T18:47:22.567Z,80.24
2018-01-19T18:48:22.580Z,80.43
2018-01-19T18:49:22.611Z,80.43
2018-01-19T18:50:22.609Z,79.95
2018-01-19T18:51:22.615Z,80.24
2018-01-19T18:52:22.639Z,80.14
2018-01-19T18:53:22.649Z,80.24
2018-01-19T18:54:22.660Z,80.52
2018-01-19T18:55:22.682Z,79.95
2018-01-19T18:56:22.708Z,80.04
2018-01-19T18:57:22.701Z,80.62
2018-01-19T18:58:22.729Z,80.24
2018-01-19T18:59:22.739Z,80.24
2018-01-19T19:00:22.742Z,80.14
2018-01-19T19:01:22.770Z,79.76
2018-01-19T19:02:22.775Z,79.76
2018-01-19T19:03:22.790Z,80.24
2018-01-19T19:04:22.803Z,80.80
2018-01-19T19:05:22.851Z,80.80
2018-01-19T19:06:22.838Z,81.18
2018-01-19T19:07:22.860Z,81.27
2018-01-19T19:08:22.876Z,81.27
2018-01-19T19:09:22.926Z,80.90
2018-01-19T19:10:22.887Z,81.47
2018-01-19T19:11:22.897Z,81.37
2018-01-19T19:12:22.909Z,81.27
2018-01-19T19:13:22.923Z,81.18
2018-01-19T19:14:22.941Z,81.47
2018-01-19T19:15:22.994Z,80.33
2018-01-19T19:16:22.977Z,80.33
2018-01-19T19:17:22.979Z,80.24
2018-01-19T19:18:23.009Z,80.14
2018-01-19T19:19:23.035Z,81.09
2018-01-19T19:20:23.018Z,80.80
2018-01-19T19:21:23.045Z,80.62
2018-01-19T19:22:23.062Z,80.90
2018-01-19T19:23:23.068Z,80.99
2018-01-19T19:24:23.076Z,81.09
2018-01-19T19:25:23.089Z,80.80
2018-01-19T19:26:23.108Z,80.99
2018-01-19T19:27:23.119Z,80.99
2018-01-19T19:28:23.127Z,81.09
2018-01-19T19:29:23.138Z,81.18
2018-01-19T19:30:23.161Z,80.99
2018-01-19T19:31:23.169Z,81.56
2018-01-19T19:32:23.182Z,81.47
2018-01-19T19:33:23.196Z,81.47
2018-01-19T19:34:23.210Z,81.56
2018-01-19T19:35:23.267Z,81.66
2018-01-19T19:36:23.248Z,81.75
2018-01-19T19:37:23.256Z,81.37
2018-01-19T19:38:23.310Z,81.47
2018-01-19T19:39:23.274Z,81.47
2018-01-19T19:40:23.353Z,81.27
2018-01-19T19:41:23.312Z,81.66
2018-01-19T19:42:23.329Z,81.47
2018-01-19T19:43:23.339Z,81.94
2018-01-19T19:44:23.364Z,81.18
2018-01-19T19:45:23.375Z,81.37
2018-01-19T19:46:23.375Z,81.27
2018-01-19T19:47:23.385Z,81.94
2018-01-19T19:48:23.402Z,81.37
2018-01-19T19:49:23.418Z,81.47
2018-01-19T19:50:23.444Z,81.47
2018-01-19T19:51:23.442Z,81.94
2018-01-19T19:52:23.459Z,81.47
2018-01-19T19:53:23.484Z,81.66
2018-01-19T19:54:23.486Z,81.56
2018-01-19T19:55:23.493Z,83.17
2018-01-19T19:56:23.505Z,83.36
2018-01-19T19:57:23.529Z,81.85
2018-01-19T19:58:23.533Z,81.47
2018-01-19T19:59:23.550Z,82.13
2018-01-19T20:00:23.569Z,81.56
2018-01-19T20:01:23.613Z,82.04
2018-01-19T20:02:23.590Z,82.60
2018-01-19T20:03:23.609Z,82.13
2018-01-19T20:04:23.621Z,83.17
2018-01-19T20:05:23.632Z,83.36
2018-01-19T20:06:23.651Z,82.60
2018-01-19T20:07:23.656Z,83.27
2018-01-19T20:08:23.677Z,82.89
2018-01-19T20:09:23.692Z,83.27
2018-01-19T20:10:23.706Z,83.36
2018-01-19T20:11:23.720Z,84.36
2018-01-19T20:12:23.727Z,84.36
2018-01-19T20:13:23.739Z,85.13
2018-01-19T20:14:23.757Z,84.55
2018-01-19T20:15:23.815Z,85.31
2018-01-19T20:16:23.785Z,85.17
2018-01-19T20:17:23.797Z,84.46
2018-01-19T20:18:23.812Z,84.41
2018-01-19T20:19:23.832Z,83.36
2018-01-19T20:20:23.838Z,82.89
2018-01-19T20:21:23.860Z,83.46
2018-01-19T20:22:23.865Z,83.65
2018-01-19T20:23:23.878Z,82.51
2018-01-19T20:24:23.902Z,83.08
2018-01-19T20:25:23.914Z,83.27
2018-01-19T20:26:23.923Z,83.27
2018-01-19T20:27:23.948Z,83.42
2018-01-19T20:28:23.947Z,83.27
2018-01-19T20:29:23.968Z,82.79
2018-01-19T20:30:23.980Z,82.98
2018-01-19T20:31:23.991Z,83.46
2018-01-19T20:32:24.001Z,82.42
2018-01-19T20:33:24.013Z,82.60
2018-01-19T20:34:24.039Z,82.89
2018-01-19T20:35:24.047Z,83.08
2018-01-19T20:36:24.056Z,83.70
2018-01-19T20:37:24.075Z,83.94
2018-01-19T20:38:24.154Z,82.98
2018-01-19T20:39:24.099Z,83.27
2018-01-19T20:40:24.109Z,82.70
2018-01-19T20:41:24.144Z,82.51
2018-01-19T20:42:24.137Z,82.60
2018-01-19T20:43:24.150Z,83.17
2018-01-19T20:44:24.166Z,82.42
2018-01-19T20:45:24.193Z,82.32
2018-01-19T20:46:24.199Z,82.13
2018-01-19T20:47:24.230Z,81.56
2018-01-19T20:48:24.217Z,81.56
2018-01-19T20:49:24.237Z,81.47
2018-01-19T20:50:24.245Z,81.37
2018-01-19T20:51:24.256Z,81.09
2018-01-19T20:52:24.272Z,81.27
2018-01-19T20:53:24.286Z,82.13
2018-01-19T20:54:24.327Z,82.60
2018-01-19T20:55:24.316Z,81.94
2018-01-19T20:56:24.323Z,82.23
2018-01-19T20:57:24.341Z,81.66
2018-01-19T20:58:24.368Z,81.56
2018-01-19T20:59:24.406Z,81.66
2018-01-19T21:00:24.383Z,82.04
2018-01-19T21:01:24.397Z,81.56
2018-01-19T21:02:24.424Z,81.85
2018-01-19T21:03:24.422Z,81.47
2018-01-19T21:04:24.472Z,81.18
2018-01-19T21:05:24.466Z,81.37
2018-01-19T21:06:24.465Z,81.66
2018-01-19T21:07:24.484Z,81.56
2018-01-19T21:08:24.493Z,81.27
2018-01-19T21:09:24.506Z,81.09
2018-01-19T21:10:24.520Z,81.18
2018-01-19T21:11:24.528Z,80.62
2018-01-19T21:12:24.545Z,80.33
2018-01-19T21:13:24.565Z,80.90
2018-01-19T21:14:24.587Z,80.80
2018-01-19T21:15:24.586Z,80.90
2018-01-19T21:16:24.602Z,81.56
2018-01-19T21:17:24.613Z,80.80
2018-01-19T21:18:24.632Z,81.18
2018-01-19T21:19:24.644Z,80.62
2018-01-19T21:20:24.652Z,81.75
2018-01-19T21:21:24.661Z,81.37
2018-01-19T21:22:24.684Z,81.66
2018-01-19T21:23:24.699Z,81.18
2018-01-19T21:24:24.712Z,81.27
2018-01-19T21:25:24.723Z,81.47
2018-01-19T21:26:24.735Z,80.80
2018-01-19T21:27:24.752Z,80.90
2018-01-19T21:28:24.778Z,81.37
2018-01-19T21:29:24.774Z,81.27
2018-01-19T21:30:24.787Z,81.09
2018-01-19T21:31:24.798Z,80.33
2018-01-19T21:32:24.815Z,79.76
2018-01-19T21:33:24.830Z,79.47
2018-01-19T21:34:24.839Z,80.04
2018-01-19T21:35:24.852Z,80.62
2018-01-19T21:36:24.870Z,80.24
2018-01-19T21:37:24.880Z,81.18
2018-01-19T21:38:24.902Z,81.18
2018-01-19T21:39:24.918Z,81.75
2018-01-19T21:40:24.998Z,82.04
2018-01-19T21:41:24.947Z,82.23
2018-01-19T21:42:24.955Z,81.94
2018-01-19T21:43:24.969Z,81.94
2018-01-19T21:44:24.981Z,81.47
2018-01-19T21:45:24.991Z,82.13
2018-01-19T21:46:25.007Z,81.94
2018-01-19T21:47:25.028Z,81.56
2018-01-19T21:48:25.040Z,81.75
2018-01-19T21:49:25.051Z,81.66
2018-01-19T21:50:25.064Z,81.18
2018-01-19T21:51:25.177Z,80.80
2018-01-19T21:52:25.092Z,80.99
2018-01-19T21:53:25.103Z,81.56
2018-01-19T21:54:25.135Z,81.37
2018-01-19T21:55:25.140Z,81.09
2018-01-19T21:56:25.309Z,81.71
2018-01-19T21:57:25.156Z,81.90
2018-01-19T21:58:25.172Z,82.13
2018-01-19T21:59:25.274Z,81.43
2018-01-19T22:00:25.230Z,81.94
2018-01-19T22:01:25.212Z,81.66
2018-01-19T22:02:25.226Z,81.47
2018-01-19T22:03:25.251Z,81.47
2018-01-19T22:04:25.254Z,80.80
2018-01-19T22:05:25.282Z,80.99
2018-01-19T22:06:25.283Z,81.24
2018-01-19T22:07:25.300Z,81.90
2018-01-19T22:08:25.309Z,81.81
2018-01-19T22:09:25.328Z,82.09
2018-01-19T22:10:25.333Z,82.37
2018-01-19T22:11:25.354Z,82.47
2018-01-19T22:12:25.369Z,83.32
2018-01-19T22:13:25.375Z,83.32
2018-01-19T22:14:25.404Z,82.66
2018-01-19T22:15:25.433Z,82.23
2018-01-19T22:16:25.412Z,81.52
2018-01-19T22:17:25.426Z,81.81
2018-01-19T22:18:25.444Z,81.75
2018-01-19T22:19:25.456Z,80.90
2018-01-19T22:20:25.470Z,81.27
2018-01-19T22:21:25.487Z,81.56
2018-01-19T22:22:25.496Z,80.90
2018-01-19T22:23:25.509Z,80.99
2018-01-19T22:24:25.529Z,81.27
2018-01-19T22:25:25.546Z,81.56
2018-01-19T22:26:25.554Z,80.80
2018-01-19T22:27:25.568Z,80.33
2018-01-19T22:28:25.589Z,80.33
2018-01-19T22:29:25.589Z,80.99
2018-01-19T22:30:25.607Z,81.18
2018-01-19T22:31:25.618Z,80.90
2018-01-19T22:32:25.628Z,80.90
2018-01-19T22:33:25.651Z,80.71
2018-01-19T22:34:25.662Z,79.95
2018-01-19T22:35:25.676Z,80.62
2018-01-19T22:36:25.690Z,80.24
2018-01-19T22:37:25.705Z,80.04
2018-01-19T22:38:25.716Z,79.47
2018-01-19T22:39:25.743Z,79.57
2018-01-19T22:40:25.742Z,79.57
2018-01-19T22:41:25.758Z,79.47
2018-01-19T22:42:25.808Z,79.47
2018-01-19T22:43:25.791Z,80.24
2018-01-19T22:44:25.796Z,80.14
2018-01-19T22:45:25.814Z,79.57
2018-01-19T22:46:25.843Z,79.57
2018-01-19T22:47:25.842Z,79.47
2018-01-19T22:48:25.851Z,79.19
2018-01-19T22:49:25.875Z,79.38
2018-01-19T22:50:25.882Z,79.19
2018-01-19T22:51:25.896Z,79.66
2018-01-19T22:52:25.920Z,80.14
2018-01-19T22:53:25.925Z,80.24
2018-01-19T22:54:25.930Z,79.38
2018-01-19T22:55:25.958Z,79.57
2018-01-19T22:56:25.966Z,79.85
2018-01-19T22:57:25.984Z,79.38
2018-01-19T22:58:25.992Z,79.38
2018-01-19T22:59:26.000Z,79.66
2018-01-19T23:00:26.018Z,79.19
2018-01-19T23:01:26.095Z,79.00
2018-01-19T23:02:26.092Z,78.62
2018-01-19T23:03:26.068Z,79.00
2018-01-19T23:04:26.074Z,79.28
2018-01-19T23:05:26.084Z,79.57
2018-01-19T23:06:26.099Z,79.57
2018-01-19T23:07:26.118Z,79.95
2018-01-19T23:08:26.125Z,79.85
2018-01-19T23:09:26.142Z,79.57
2018-01-19T23:10:26.150Z,79.57
2018-01-19T23:11:26.173Z,79.95
2018-01-19T23:12:26.178Z,80.14
2018-01-19T23:13:26.200Z,80.99
2018-01-19T23:14:26.211Z,80.99
2018-01-19T23:15:26.219Z,80.76
2018-01-19T23:16:26.241Z,80.90
2018-01-19T23:17:26.250Z,80.14
2018-01-19T23:18:26.261Z,79.19
2018-01-19T23:19:26.315Z,79.00
2018-01-19T23:20:26.289Z,78.91
2018-01-19T23:21:26.308Z,79.00
2018-01-19T23:22:26.317Z,78.81
2018-01-19T23:23:26.332Z,79.10
2018-01-19T23:24:26.344Z,78.91
2018-01-19T23:25:26.363Z,79.57
2018-01-19T23:26:26.375Z,79.47
2018-01-19T23:27:26.390Z,79.28
2018-01-19T23:28:26.397Z,79.28
2018-01-19T23:29:26.479Z,79.57
2018-01-19T23:30:26.438Z,79.47
2018-01-19T23:31:26.439Z,79.10
2018-01-19T23:32:26.450Z,79.38
2018-01-19T23:33:26.466Z,79.10
2018-01-19T23:34:26.478Z,79.57
2018-01-19T23:35:26.493Z,78.81
2018-01-19T23:36:26.511Z,79.38
2018-01-19T23:37:26.521Z,78.91
2018-01-19T23:38:26.534Z,78.91
2018-01-19T23:39:26.543Z,78.53
2018-01-19T23:40:26.560Z,78.81
2018-01-19T23:41:26.634Z,79.25
2018-01-19T23:42:26.586Z,79.34
2018-01-19T23:43:26.608Z,79.19
2018-01-19T23:44:26.611Z,79.00
2018-01-19T23:45:26.626Z,78.91
2018-01-19T23:46:26.648Z,78.91
2018-01-19T23:47:26.650Z,78.49
2018-01-19T23:48:26.671Z,79.06
2018-01-19T23:49:26.676Z,78.77
2018-01-19T23:50:26.692Z,78.62
2018-01-19T23:51:26.721Z,78.53
2018-01-19T23:52:26.723Z,78.62
2018-01-19T23:53:26.738Z,77.96
2018-01-19T23:54:26.743Z,78.43
2018-01-19T23:55:26.754Z,78.43
2018-01-19T23:56:26.770Z,78.53
2018-01-19T23:57:26.786Z,78.34
2018-01-19T23:58:26.797Z,78.43
2018-01-19T23:59:26.805Z,78.43
